Flag for Argentina

Past Weather in 45°51'40.8"S, 67°28'06.3"W, Argentina — Yesterday and Last 2 Weeks

Currently: 55 °F. Clear. (Weather station: Comodoro Rivadavia Aerodrome, Argentina). See more current weather

Past Weather in 45°51'40.8"S, 67°28'06.3"W — Graph

°F

45°51'40.8"S, 67°28'06.3"W Temperature Yesterday

Maximum temperature yesterday: 61 °F (at 4:00 pm)
Minimum temperature yesterday: 39 °F (at 8:00 am)
Average temperature yesterday: 49 °F

High & Low Weather Summary for the Past Weeks

 TemperatureHumidityPressure
High81 °F (Mar 24, 4:00 pm)88% (Mar 18, 8:00 pm)30.24 "Hg (Mar 18, 8:00 pm)
Low39 °F (Mar 29, 8:00 am)9% (Mar 27, 5:00 am)29.24 "Hg (Mar 27, 4:00 pm)
Average59 °F38%29.90 "Hg
* Reported Mar 14 10:00 pm — Mar 29 10:00 pm, 45°51'40.8"S, 67°28'06.3"W. Weather by CustomWeather, © 2023

Note: Actual official high and low records may vary slightly from our data, if they occured in-between our weather recording intervals... More about our weather records

45°51'40.8"S, 67°28'06.3"W Weather History for the Previous 24 Hours

Scroll right to see more
 ConditionsComfort  
Time TempWeatherWind HumidityBarometerVisibility
10:00 pm
Wed, Mar 29
55 °FClear.22 mph36%29.74 "Hg10 mi
8:00 pm57 °FClear.12 mph31%29.74 "Hg10 mi
7:00 pm59 °FSunny.12 mph29%29.74 "Hg10 mi
6:00 pm59 °FSunny.15 mph29%29.77 "Hg10 mi
5:00 pm61 °FPassing clouds.15 mph25%29.77 "HgN/A
4:00 pm61 °FPassing clouds.22 mph25%29.80 "HgN/A
3:00 pm57 °FPartly sunny.25 mph27%29.80 "HgN/A
2:00 pm57 °FPassing clouds.25 mph27%29.80 "HgN/A
1:00 pm55 °FSunny.22 mph28%29.83 "Hg10 mi
12:00 pm52 °FPassing clouds.25 mph35%29.86 "HgN/A
11:00 am48 °FSunny.24 mph40%29.86 "Hg10 mi
10:00 am46 °FSunny.24 mph43%29.83 "Hg10 mi
9:34 am45 °FSunny.22 mph42%29.83 "Hg10 mi
9:00 am43 °FSunny.24 mph46%29.83 "Hg10 mi
8:00 am39 °FSunny.18 mph52%29.83 "Hg10 mi
7:00 am41 °FClear.20 mph45%29.80 "Hg10 mi
6:00 am41 °FClear.18 mph45%29.80 "Hg10 mi
5:00 am41 °FClear.18 mph49%29.77 "Hg10 mi
4:00 am41 °FClear.22 mph49%29.74 "Hg10 mi
3:00 am41 °FClear.21 mph53%29.74 "Hg10 mi
2:00 am43 °FClear.20 mph49%29.71 "Hg10 mi
1:00 am45 °FClear.22 mph46%29.65 "Hg10 mi
12:00 am45 °FClear.20 mph49%29.62 "Hg10 mi
Weather by CustomWeather, © 2023

See weather overview